createdAt,value
2018-12-04T00:00:10.136Z,2.90
2018-12-04T00:05:32.018Z,2.13
2018-12-04T00:07:59.461Z,1.93
2018-12-04T00:13:48.335Z,1.73
2018-12-04T00:19:13.445Z,1.90
2018-12-04T00:21:40.869Z,2.30
2018-12-04T00:24:08.325Z,2.07
2018-12-04T00:26:35.737Z,2.27
2018-12-04T00:29:03.186Z,1.90
2018-12-04T00:31:30.899Z,1.70
2018-12-04T00:33:58.354Z,1.80
2018-12-04T00:36:25.765Z,1.80
2018-12-04T00:38:53.204Z,2.40
2018-12-04T00:41:20.644Z,1.80
2018-12-04T00:43:48.081Z,2.27
2018-12-04T00:46:15.547Z,1.77
2018-12-04T00:49:02.370Z,1.83
2018-12-04T00:57:53.450Z,1.90
2018-12-04T01:00:20.891Z,1.83
2018-12-04T01:02:48.391Z,1.60
2018-12-04T01:07:50.223Z,1.97
2018-12-04T01:10:17.657Z,1.67
2018-12-04T01:13:40.845Z,1.40
2018-12-04T01:28:12.713Z,2.27
2018-12-04T01:30:40.154Z,1.80
2018-12-04T01:33:07.582Z,1.60
2018-12-04T01:35:34.993Z,2.13
2018-12-04T01:38:22.108Z,1.50
2018-12-04T01:41:29.158Z,1.97
2018-12-04T01:43:56.586Z,1.67
2018-12-04T01:46:29.024Z,1.67
2018-12-04T01:48:56.447Z,1.50
2018-12-04T01:51:23.886Z,2.00
2018-12-04T01:53:51.318Z,2.20
2018-12-04T01:56:18.825Z,1.77
2018-12-04T02:01:58.627Z,1.90
2018-12-04T02:04:29.141Z,1.93
2018-12-04T02:06:56.557Z,1.53
2018-12-04T02:09:23.989Z,2.60
2018-12-04T02:11:51.402Z,1.87
2018-12-04T02:14:18.993Z,2.20
2018-12-04T02:16:46.405Z,2.47
2018-12-04T02:19:28.820Z,2.07
2018-12-04T02:21:56.234Z,2.37
2018-12-04T02:24:38.473Z,2.50
2018-12-04T02:27:05.887Z,2.27
2018-12-04T02:29:33.294Z,2.10
2018-12-04T02:32:00.912Z,2.57
2018-12-04T02:34:36.781Z,2.50
2018-12-04T02:37:04.266Z,2.47
2018-12-04T02:39:31.724Z,2.63
2018-12-04T02:41:59.231Z,2.40
2018-12-04T02:44:26.665Z,2.50
2018-12-04T02:49:56.030Z,2.30
2018-12-04T02:55:17.595Z,2.53
2018-12-04T02:57:44.995Z,2.27
2018-12-04T03:00:12.428Z,2.60
2018-12-04T03:02:40.020Z,3.47
2018-12-04T03:05:07.508Z,2.90
2018-12-04T03:07:38.740Z,3.63
2018-12-04T03:10:09.393Z,2.57
2018-12-04T03:12:36.988Z,2.77
2018-12-04T03:15:04.979Z,2.90
2018-12-04T03:17:32.404Z,2.63
2018-12-04T03:19:59.810Z,2.53
2018-12-04T03:22:27.229Z,2.70
2018-12-04T03:24:54.638Z,2.97
2018-12-04T03:27:22.075Z,3.23
2018-12-04T03:29:49.492Z,3.00
2018-12-04T03:32:16.925Z,2.67
2018-12-04T03:34:44.480Z,2.70
2018-12-04T03:37:11.999Z,2.83
2018-12-04T03:39:39.792Z,2.50
2018-12-04T03:42:07.217Z,3.23
2018-12-04T03:44:34.644Z,2.50
2018-12-04T03:47:02.063Z,2.57
2018-12-04T03:49:29.494Z,2.40
2018-12-04T03:51:56.909Z,2.40
2018-12-04T03:54:24.348Z,2.00
2018-12-04T03:56:57.915Z,2.83
2018-12-04T03:59:25.422Z,2.37
2018-12-04T04:01:52.929Z,2.73
2018-12-04T04:04:24.374Z,2.23
2018-12-04T04:06:51.825Z,2.87
2018-12-04T04:09:19.241Z,2.10
2018-12-04T04:11:47.736Z,2.13
2018-12-04T04:14:15.144Z,1.80
2018-12-04T04:16:42.912Z,1.53
2018-12-04T04:19:10.459Z,1.93
2018-12-04T04:21:37.903Z,1.70
2018-12-04T04:24:05.318Z,2.20
2018-12-04T04:26:32.734Z,1.50
2018-12-04T04:29:04.985Z,1.80
2018-12-04T04:31:49.522Z,1.80
2018-12-04T04:34:16.953Z,1.70
2018-12-04T04:36:44.385Z,1.77
2018-12-04T04:39:16.683Z,1.80
2018-12-04T04:41:44.144Z,2.10
2018-12-04T04:44:11.695Z,1.63
2018-12-04T04:46:39.125Z,2.07
2018-12-04T04:49:06.553Z,2.90
2018-12-04T04:51:33.981Z,2.93
2018-12-04T04:54:08.286Z,1.77
2018-12-04T04:56:35.691Z,1.87
2018-12-04T04:59:03.143Z,1.90
2018-12-04T05:01:30.585Z,2.83
2018-12-04T05:03:58.024Z,2.50
2018-12-04T05:06:25.467Z,1.80
2018-12-04T05:08:52.910Z,2.17
2018-12-04T05:11:20.341Z,2.20
2018-12-04T05:13:47.767Z,2.17
2018-12-04T05:16:15.200Z,2.67
2018-12-04T05:18:42.649Z,2.60
2018-12-04T05:21:10.091Z,2.17
2018-12-04T05:23:37.776Z,3.03
2018-12-04T05:26:05.283Z,3.07
2018-12-04T05:28:32.720Z,2.63
2018-12-04T05:33:50.415Z,2.80
2018-12-04T05:36:17.910Z,2.73
2018-12-04T05:38:45.361Z,2.30
2018-12-04T05:41:12.807Z,2.73
2018-12-04T05:43:41.208Z,3.07
2018-12-04T05:46:08.631Z,3.23
2018-12-04T05:48:36.053Z,3.03
2018-12-04T05:51:03.490Z,3.57
2018-12-04T05:53:32.251Z,3.80
2018-12-04T05:56:01.635Z,3.20
2018-12-04T05:58:29.054Z,3.17
2018-12-04T06:00:56.499Z,3.43
2018-12-04T06:03:28.811Z,3.30
2018-12-04T06:05:56.248Z,3.20
2018-12-04T06:08:25.619Z,2.60
2018-12-04T06:10:53.939Z,2.40
2018-12-04T06:13:21.382Z,3.27
2018-12-04T06:15:54.033Z,3.87
2018-12-04T06:18:26.369Z,10.50
2018-12-04T06:20:53.885Z,2.27
2018-12-04T06:23:21.394Z,2.83
2018-12-04T06:25:48.800Z,2.30
2018-12-04T06:28:16.230Z,1.97
2018-12-04T06:30:43.688Z,1.93
2018-12-04T06:33:11.096Z,1.93
2018-12-04T06:35:44.671Z,2.27
2018-12-04T06:38:12.089Z,1.90
2018-12-04T06:40:44.380Z,1.90
2018-12-04T06:46:02.297Z,1.80
2018-12-04T06:48:29.779Z,2.00
2018-12-04T06:50:57.218Z,2.10
2018-12-04T06:53:24.652Z,1.80
2018-12-04T06:55:52.181Z,1.90
2018-12-04T06:58:21.705Z,1.70
2018-12-04T07:00:53.067Z,1.97
2018-12-04T07:03:21.497Z,1.60
2018-12-04T07:05:51.090Z,1.53
2018-12-04T07:08:18.551Z,2.20
2018-12-04T07:10:50.042Z,2.17
2018-12-04T07:13:17.470Z,2.03
2018-12-04T07:15:49.908Z,1.97
2018-12-04T07:18:17.326Z,1.90
2018-12-04T07:20:44.759Z,1.97
2018-12-04T07:23:12.277Z,1.80
2018-12-04T07:25:39.695Z,2.23
2018-12-04T07:28:07.130Z,2.30
2018-12-04T07:30:34.539Z,2.10
2018-12-04T07:33:06.865Z,2.17
2018-12-04T07:35:34.308Z,2.07
2018-12-04T07:38:01.731Z,2.23
2018-12-04T07:43:59.491Z,2.40
2018-12-04T07:46:26.993Z,2.67
2018-12-04T07:48:54.703Z,2.37
2018-12-04T07:51:22.112Z,2.37
2018-12-04T07:53:52.344Z,2.10
2018-12-04T07:56:24.713Z,2.63
2018-12-04T07:58:52.199Z,2.20
2018-12-04T08:01:19.848Z,1.77
2018-12-04T08:09:26.269Z,2.33
2018-12-04T08:20:25.606Z,2.53
2018-12-04T08:22:53.175Z,2.80
2018-12-04T08:25:20.625Z,3.03
2018-12-04T08:27:48.044Z,2.63
2018-12-04T08:30:30.393Z,3.00
2018-12-04T08:33:04.874Z,3.13
2018-12-04T08:35:32.297Z,2.97
2018-12-04T08:37:59.746Z,2.93
2018-12-04T08:40:27.170Z,2.80
2018-12-04T08:42:54.706Z,3.63
2018-12-04T08:45:22.114Z,3.70
2018-12-04T08:47:49.640Z,3.17
2018-12-04T08:50:23.891Z,3.70
2018-12-04T08:52:51.422Z,3.03
2018-12-04T08:55:18.870Z,4.33
2018-12-04T09:00:20.105Z,3.70
2018-12-04T09:02:47.671Z,3.93
2018-12-04T09:05:15.153Z,3.87
2018-12-04T09:07:42.731Z,5.00
2018-12-04T09:10:10.159Z,4.33
2018-12-04T09:12:37.598Z,5.30
2018-12-04T09:15:14.488Z,4.37
2018-12-04T09:17:41.922Z,4.60
2018-12-04T09:20:09.397Z,4.07
2018-12-04T09:22:36.953Z,4.40
2018-12-04T09:25:11.133Z,4.20
2018-12-04T09:27:42.572Z,4.33
2018-12-04T09:30:10.665Z,4.47
2018-12-04T09:32:38.212Z,4.50
2018-12-04T09:35:05.799Z,3.73
2018-12-04T09:37:33.248Z,4.50
2018-12-04T09:40:00.661Z,4.00
2018-12-04T09:42:28.196Z,4.10
2018-12-04T09:44:55.649Z,3.70
2018-12-04T09:47:28.122Z,3.67
2018-12-04T09:49:55.776Z,3.80
2018-12-04T09:52:25.042Z,3.70
2018-12-04T09:54:52.444Z,3.80
2018-12-04T09:57:21.810Z,3.90
2018-12-04T09:59:50.089Z,3.13
2018-12-04T10:02:17.555Z,3.60
2018-12-04T10:04:44.983Z,3.50
2018-12-04T10:07:12.411Z,3.83
2018-12-04T10:09:44.884Z,3.50
2018-12-04T10:12:17.288Z,4.03
2018-12-04T10:14:44.702Z,4.27
2018-12-04T10:17:12.138Z,3.93
2018-12-04T10:19:39.562Z,3.63
2018-12-04T10:22:06.992Z,3.67
2018-12-04T10:24:34.431Z,4.47
2018-12-04T10:27:01.932Z,3.53
2018-12-04T10:29:29.439Z,4.10
2018-12-04T10:32:03.690Z,4.40
2018-12-04T10:34:31.105Z,5.90
2018-12-04T10:37:03.546Z,3.73
2018-12-04T10:39:31.011Z,4.23
2018-12-04T10:41:58.443Z,3.20
2018-12-04T10:44:25.876Z,2.60
2018-12-04T10:46:53.294Z,3.03
2018-12-04T10:49:20.751Z,3.17
2018-12-04T10:51:48.170Z,3.83
2018-12-04T10:54:15.630Z,2.83
2018-12-04T10:56:43.152Z,3.03
2018-12-04T10:59:10.812Z,2.70
2018-12-04T11:01:44.841Z,2.67
2018-12-04T11:04:12.516Z,2.60
2018-12-04T11:06:49.522Z,2.37
2018-12-04T11:09:21.217Z,2.23
2018-12-04T11:11:48.705Z,2.83
2018-12-04T11:14:16.165Z,3.23
2018-12-04T11:16:43.606Z,3.13
2018-12-04T11:19:16.983Z,12.97
2018-12-04T11:21:52.493Z,2.20
2018-12-04T11:24:19.930Z,2.57
2018-12-04T11:26:47.386Z,3.43
2018-12-04T11:29:14.836Z,2.37
2018-12-04T11:31:44.140Z,8.03
2018-12-04T11:34:11.555Z,4.17
2018-12-04T11:37:00.967Z,10.07
2018-12-04T11:39:29.203Z,3.87
2018-12-04T11:42:00.754Z,2.97
2018-12-04T11:44:28.186Z,4.97
2018-12-04T11:46:55.637Z,3.57
2018-12-04T11:49:23.077Z,4.93
2018-12-04T11:51:50.513Z,2.40
2018-12-04T11:54:17.944Z,2.40
2018-12-04T11:56:45.369Z,2.40
2018-12-04T11:59:12.810Z,2.40
2018-12-04T12:01:40.234Z,1.80
2018-12-04T12:04:07.660Z,2.10
2018-12-04T12:06:35.122Z,2.10
2018-12-04T12:09:02.555Z,2.17
2018-12-04T12:11:34.955Z,2.10
2018-12-04T12:14:02.474Z,2.00
2018-12-04T12:16:29.890Z,2.60
2018-12-04T12:18:57.436Z,2.13
2018-12-04T12:21:24.864Z,2.23
2018-12-04T12:23:52.322Z,1.57
2018-12-04T12:26:19.747Z,1.77
2018-12-04T12:28:47.169Z,2.03
2018-12-04T12:31:14.833Z,2.08
2018-12-04T12:33:42.270Z,1.77
2018-12-04T12:36:14.487Z,2.23
2018-12-04T12:38:41.911Z,2.00
2018-12-04T12:41:09.328Z,1.93
2018-12-04T12:43:36.786Z,1.97
2018-12-04T12:46:07.093Z,1.53
2018-12-04T12:48:38.720Z,2.00
2018-12-04T12:51:06.128Z,2.40
2018-12-04T12:53:35.442Z,1.87
2018-12-04T12:56:02.874Z,1.67
2018-12-04T12:58:30.338Z,1.77
2018-12-04T13:00:57.776Z,2.30
2018-12-04T13:03:25.417Z,2.20
2018-12-04T13:05:52.859Z,2.30
2018-12-04T13:08:20.312Z,2.23
2018-12-04T13:10:51.948Z,2.10
2018-12-04T13:13:19.498Z,2.40
2018-12-04T13:15:47.065Z,2.70
2018-12-04T13:18:29.554Z,2.40
2018-12-04T13:20:57.946Z,2.30
2018-12-04T13:23:25.356Z,2.50
2018-12-04T13:25:52.798Z,2.50
2018-12-04T13:28:20.367Z,2.20
2018-12-04T13:30:53.019Z,2.10
2018-12-04T13:33:20.540Z,1.93
2018-12-04T13:35:47.990Z,2.37
2018-12-04T13:38:15.502Z,2.00
2018-12-04T13:40:42.958Z,2.83
2018-12-04T13:43:10.481Z,2.97
2018-12-04T13:48:28.627Z,2.67
2018-12-04T13:50:56.101Z,1.97
2018-12-04T13:53:23.627Z,2.43
2018-12-04T13:55:51.143Z,2.10
2018-12-04T13:58:18.639Z,1.93
2018-12-04T14:00:46.460Z,2.37
2018-12-04T14:03:16.896Z,2.50
2018-12-04T14:05:47.692Z,2.17
2018-12-04T14:08:15.227Z,2.20
2018-12-04T14:10:42.897Z,2.20
2018-12-04T14:13:15.301Z,2.20
2018-12-04T14:15:42.796Z,2.37
2018-12-04T14:18:10.242Z,2.53
2018-12-04T14:20:37.679Z,2.07
2018-12-04T14:23:05.234Z,1.93
2018-12-04T14:25:32.774Z,1.70
2018-12-04T14:28:15.398Z,1.90
2018-12-04T14:30:42.847Z,2.30
2018-12-04T14:33:10.429Z,2.97
2018-12-04T14:35:37.987Z,2.47
2018-12-04T14:38:05.598Z,2.43
2018-12-04T14:40:33.039Z,2.63
2018-12-04T14:43:00.543Z,2.90
2018-12-04T14:45:27.991Z,1.90
2018-12-04T14:47:55.571Z,2.10
2018-12-04T14:50:23.099Z,2.90
2018-12-04T14:52:50.638Z,2.53
2018-12-04T14:55:18.311Z,2.90
2018-12-04T14:57:45.832Z,2.70
2018-12-04T15:00:13.824Z,2.90
2018-12-04T15:02:41.257Z,3.43
2018-12-04T15:05:08.792Z,2.57
2018-12-04T15:10:11.487Z,2.63
2018-12-04T15:12:43.148Z,2.80
2018-12-04T15:15:10.829Z,3.23
2018-12-04T15:17:38.267Z,3.07
2018-12-04T15:20:06.714Z,3.50
2018-12-04T15:22:34.267Z,2.73
2018-12-04T15:25:01.818Z,3.13
2018-12-04T15:27:29.367Z,2.80
2018-12-04T15:30:00.858Z,2.37
2018-12-04T15:32:28.396Z,3.27
2018-12-04T15:34:55.934Z,3.07
2018-12-04T15:37:26.469Z,2.53
2018-12-04T15:39:53.943Z,2.73
2018-12-04T15:42:29.977Z,3.00
2018-12-04T15:44:57.517Z,3.03
2018-12-04T15:47:25.081Z,2.20
2018-12-04T15:49:54.524Z,2.53
2018-12-04T15:52:22.158Z,2.70
2018-12-04T15:54:49.660Z,3.00
2018-12-04T15:57:21.076Z,2.30
2018-12-04T15:59:48.773Z,2.57
2018-12-04T16:02:16.226Z,3.30
2018-12-04T16:04:43.647Z,2.73
2018-12-04T16:07:12.085Z,2.73
2018-12-04T16:09:39.544Z,2.80
2018-12-04T16:12:07.161Z,2.93
2018-12-04T16:14:34.577Z,2.40
2018-12-04T16:17:02.036Z,2.00
2018-12-04T16:19:29.462Z,2.80
2018-12-04T16:21:56.919Z,2.30
2018-12-04T16:24:24.351Z,2.63
2018-12-04T16:26:51.785Z,2.30
2018-12-04T16:29:23.269Z,2.93
2018-12-04T16:31:50.742Z,2.90
2018-12-04T16:37:25.578Z,2.80
2018-12-04T16:39:53.012Z,2.97
2018-12-04T16:42:26.479Z,2.63
2018-12-04T16:47:32.248Z,3.40
2018-12-04T17:00:52.034Z,3.53
2018-12-04T17:03:26.458Z,3.10
2018-12-04T17:14:26.241Z,3.50
2018-12-04T17:25:25.781Z,3.27
2018-12-04T17:30:39.352Z,3.50
2018-12-04T17:33:27.355Z,4.10
2018-12-04T17:49:37.870Z,3.40
2018-12-04T17:52:05.404Z,4.20
2018-12-04T17:54:32.827Z,3.77
2018-12-04T17:59:40.775Z,4.40
2018-12-04T18:02:26.264Z,4.23
2018-12-04T18:13:06.093Z,4.60
2018-12-04T18:15:33.522Z,5.03
2018-12-04T18:18:00.987Z,6.60
2018-12-04T18:20:28.399Z,5.10
2018-12-04T18:22:55.907Z,6.60
2018-12-04T18:27:57.298Z,8.63
2018-12-04T18:30:24.969Z,8.03
2018-12-04T18:32:52.413Z,10.17
2018-12-04T18:35:19.859Z,9.43
2018-12-04T18:37:47.289Z,9.60
2018-12-04T18:40:14.822Z,9.73
2018-12-04T18:42:42.272Z,9.63
2018-12-04T18:45:13.816Z,9.63
2018-12-04T18:47:41.244Z,8.33
2018-12-04T18:50:16.613Z,9.97
2018-12-04T18:52:50.007Z,10.67
2018-12-04T18:55:19.626Z,10.13
2018-12-04T19:00:22.137Z,10.53
2018-12-04T19:02:49.559Z,11.77
2018-12-04T19:05:17.147Z,10.53
2018-12-04T19:07:44.666Z,10.17
2018-12-04T19:10:12.114Z,10.40
2018-12-04T19:12:39.534Z,10.67
2018-12-04T19:17:40.972Z,9.97
2018-12-04T19:20:12.841Z,9.53
2018-12-04T19:22:41.968Z,9.03
2018-12-04T19:25:09.753Z,8.27
2018-12-04T19:27:41.227Z,9.97
2018-12-04T19:30:12.954Z,9.83
2018-12-04T19:32:40.511Z,8.70
2018-12-04T19:35:09.216Z,9.63
2018-12-04T19:37:36.708Z,8.50
2018-12-04T19:42:43.687Z,7.93
2018-12-04T19:45:11.188Z,7.63
2018-12-04T19:47:38.659Z,7.17
2018-12-04T19:50:06.807Z,7.60
2018-12-04T19:52:34.414Z,7.80
2018-12-04T19:55:05.964Z,7.47
2018-12-04T19:57:34.283Z,8.37
2018-12-04T20:00:01.722Z,8.03
2018-12-04T20:02:29.215Z,7.23
2018-12-04T20:04:56.640Z,7.27
2018-12-04T20:07:24.057Z,7.00
2018-12-04T20:09:51.478Z,6.87
2018-12-04T20:12:18.938Z,6.30
2018-12-04T20:14:46.364Z,6.30
2018-12-04T20:17:13.849Z,6.50
2018-12-04T20:19:41.308Z,6.30
2018-12-04T20:22:08.828Z,5.47
2018-12-04T20:24:36.382Z,5.90
2018-12-04T20:27:04.063Z,5.93
2018-12-04T20:29:31.664Z,6.33
2018-12-04T20:31:59.151Z,7.20
2018-12-04T20:34:26.674Z,6.43
2018-12-04T20:36:54.260Z,7.67
2018-12-04T20:42:56.425Z,6.83
2018-12-04T20:45:23.878Z,8.60
2018-12-04T20:47:51.333Z,8.00
2018-12-04T20:50:18.789Z,9.17
2018-12-04T20:52:46.386Z,8.50
2018-12-04T20:55:13.892Z,7.80
2018-12-04T20:57:41.423Z,8.37
2018-12-04T21:00:14.485Z,8.73
2018-12-04T21:02:42.004Z,9.40
2018-12-04T21:05:16.451Z,9.67
2018-12-04T21:07:49.940Z,9.80
2018-12-04T21:10:17.486Z,8.97
2018-12-04T21:12:44.988Z,9.63
2018-12-04T21:15:12.424Z,8.53
2018-12-04T21:17:39.859Z,8.83
2018-12-04T21:20:11.423Z,8.67
2018-12-04T21:22:40.796Z,8.83
2018-12-04T21:25:08.264Z,8.80
2018-12-04T21:27:41.297Z,8.10
2018-12-04T21:30:15.700Z,8.70
2018-12-04T21:32:55.944Z,8.07
2018-12-04T21:35:31.077Z,8.77
2018-12-04T21:38:04.768Z,9.17
2018-12-04T21:40:37.829Z,9.00
2018-12-04T21:43:11.003Z,9.40
2018-12-04T21:48:50.572Z,8.57
2018-12-04T21:51:18.009Z,9.23
2018-12-04T21:53:45.629Z,8.67
2018-12-04T21:56:13.054Z,9.60
2018-12-04T21:58:40.518Z,8.70
2018-12-04T22:01:08.034Z,9.00
2018-12-04T22:03:35.491Z,8.53
2018-12-04T22:06:02.905Z,8.80
2018-12-04T22:08:30.346Z,9.13
2018-12-04T22:13:32.747Z,9.87
2018-12-04T22:16:00.189Z,9.23
2018-12-04T22:18:27.739Z,9.20
2018-12-04T22:20:55.300Z,9.10
2018-12-04T22:23:22.809Z,9.20
2018-12-04T22:25:50.249Z,9.37
2018-12-04T22:28:17.783Z,8.63
2018-12-04T22:30:45.215Z,9.13
2018-12-04T22:33:12.638Z,9.90
2018-12-04T22:35:42.013Z,9.73
2018-12-04T22:38:09.432Z,10.23
2018-12-04T22:40:36.899Z,9.73
2018-12-04T22:43:04.326Z,9.90
2018-12-04T22:45:47.048Z,9.40
2018-12-04T22:48:14.462Z,10.23
2018-12-04T22:50:42.093Z,11.30
2018-12-04T22:53:09.539Z,10.20
2018-12-04T22:55:36.991Z,10.07
2018-12-04T22:58:04.457Z,10.80
2018-12-04T23:00:38.100Z,10.07
2018-12-04T23:03:05.630Z,9.83
2018-12-04T23:05:33.082Z,10.10
2018-12-04T23:08:00.513Z,10.07
2018-12-04T23:10:28.035Z,10.53
2018-12-04T23:12:55.481Z,8.07
2018-12-04T23:15:22.914Z,10.20
2018-12-04T23:20:51.276Z,11.07
2018-12-04T23:23:18.698Z,9.33
2018-12-04T23:25:46.243Z,10.77
2018-12-04T23:28:21.611Z,10.63
2018-12-04T23:30:49.045Z,11.00
2018-12-04T23:33:16.487Z,10.10
2018-12-04T23:38:48.716Z,9.40
2018-12-04T23:41:16.228Z,9.90
2018-12-04T23:43:43.657Z,9.80
2018-12-04T23:46:18.985Z,9.27
2018-12-04T23:48:46.734Z,9.37
2018-12-04T23:51:14.184Z,9.60
2018-12-04T23:53:41.625Z,8.27
2018-12-04T23:56:09.147Z,8.03
2018-12-04T23:58:40.542Z,9.03
